createdAt,value
2023-01-19T00:01:18.226Z,47.10
2023-01-19T00:05:06.990Z,50.40
2023-01-19T00:08:45.751Z,41.60
2023-01-19T00:11:58.613Z,49.20
2023-01-19T00:15:37.201Z,44.70
2023-01-19T00:19:09.713Z,53.30
2023-01-19T00:22:58.859Z,45.30
2023-01-19T00:26:00.331Z,50.20
2023-01-19T00:29:17.139Z,50.60
2023-01-19T00:32:38.261Z,54.60
2023-01-19T00:36:10.029Z,49.00
2023-01-19T00:39:38.645Z,48.10
2023-01-19T00:43:27.387Z,47.90
2023-01-19T00:47:04.786Z,49.20
2023-01-19T00:50:25.153Z,49.30
2023-01-19T00:54:12.660Z,47.00
2023-01-19T00:57:43.618Z,49.00
2023-01-19T01:00:54.176Z,50.50
2023-01-19T01:03:53.446Z,53.40
2023-01-19T01:07:06.211Z,49.10
2023-01-19T01:10:15.283Z,51.20
2023-01-19T01:13:39.758Z,55.60
2023-01-19T01:16:50.787Z,50.00
2023-01-19T01:20:04.910Z,48.10
2023-01-19T01:23:46.620Z,49.50
2023-01-19T01:27:00.616Z,55.90
2023-01-19T01:30:18.388Z,51.40
2023-01-19T01:33:43.099Z,52.50
2023-01-19T01:37:24.510Z,46.70
2023-01-19T01:40:58.321Z,48.00
2023-01-19T01:44:29.056Z,48.70
2023-01-19T01:47:51.181Z,46.80
2023-01-19T01:51:19.876Z,53.30
2023-01-19T01:55:13.969Z,53.40
2023-01-19T01:58:45.417Z,51.80
2023-01-19T02:01:52.451Z,54.90
2023-01-19T02:05:24.709Z,52.20
2023-01-19T02:08:23.361Z,57.00
2023-01-19T02:12:10.554Z,50.80
2023-01-19T02:15:14.247Z,46.80
2023-01-19T02:18:48.377Z,54.50
2023-01-19T02:22:45.664Z,53.80
2023-01-19T02:26:34.399Z,50.80
2023-01-19T02:30:12.733Z,54.40
2023-01-19T02:33:50.142Z,52.30
2023-01-19T02:37:16.413Z,47.80
2023-01-19T02:40:50.994Z,50.10
2023-01-19T02:44:29.777Z,48.70
2023-01-19T02:48:08.356Z,46.10
2023-01-19T02:52:02.856Z,49.60
2023-01-19T02:56:06.726Z,46.60
2023-01-19T02:59:19.128Z,49.20
2023-01-19T03:03:21.577Z,52.00
2023-01-19T03:07:09.377Z,46.30
2023-01-19T03:10:58.140Z,46.40
2023-01-19T03:13:56.462Z,42.40
2023-01-19T03:17:32.532Z,43.80
2023-01-19T03:21:14.337Z,47.80
2023-01-19T03:24:47.025Z,48.70
2023-01-19T03:28:27.200Z,50.60
2023-01-19T03:31:50.746Z,47.50
2023-01-19T03:35:32.017Z,52.70
2023-01-19T03:39:20.731Z,48.50
2023-01-19T03:42:59.938Z,42.70
2023-01-19T03:46:11.218Z,45.70
2023-01-19T03:49:49.719Z,48.50
2023-01-19T03:56:43.811Z,42.30
2023-01-19T04:00:04.414Z,54.70
2023-01-19T04:03:45.681Z,60.70
2023-01-19T04:07:34.413Z,49.00
2023-01-19T04:11:12.241Z,50.40
2023-01-19T04:14:39.569Z,48.90
2023-01-19T04:17:58.215Z,53.50
2023-01-19T04:21:35.635Z,44.10
2023-01-19T04:25:24.350Z,50.30
2023-01-19T04:29:03.045Z,45.20
2023-01-19T04:32:24.107Z,46.20
2023-01-19T04:35:34.220Z,50.20
2023-01-19T04:38:46.622Z,49.80
2023-01-19T04:42:17.872Z,48.90
2023-01-19T04:45:39.437Z,45.50
2023-01-19T04:48:57.916Z,52.00
2023-01-19T04:52:26.515Z,47.80
2023-01-19T04:55:45.548Z,48.70
2023-01-19T04:59:03.347Z,50.30
2023-01-19T05:02:34.415Z,50.90
2023-01-19T05:05:45.460Z,53.20
2023-01-19T05:09:16.437Z,52.60
2023-01-19T05:12:56.120Z,46.10
2023-01-19T05:16:25.781Z,52.60
2023-01-19T05:19:34.433Z,54.90
2023-01-19T05:23:12.150Z,49.00
2023-01-19T05:26:53.090Z,53.00
2023-01-19T05:29:59.802Z,50.80
2023-01-19T05:33:02.686Z,51.20
2023-01-19T05:36:33.797Z,52.20
2023-01-19T05:39:25.097Z,46.80
2023-01-19T05:45:46.229Z,51.60
2023-01-19T05:49:34.978Z,51.60
2023-01-19T05:53:00.508Z,51.50
2023-01-19T05:56:29.182Z,49.90
2023-01-19T05:59:43.941Z,50.70
2023-01-19T06:02:48.468Z,47.20
2023-01-19T06:05:39.444Z,46.40
2023-01-19T06:08:44.929Z,42.00
2023-01-19T06:12:16.201Z,43.10
2023-01-19T06:15:43.380Z,42.20
2023-01-19T06:19:22.522Z,40.80
2023-01-19T06:22:11.033Z,42.80
2023-01-19T06:25:32.473Z,40.40
2023-01-19T06:28:26.328Z,38.00
2023-01-19T06:31:35.649Z,45.70
2023-01-19T06:34:47.206Z,43.80
2023-01-19T06:37:31.569Z,40.80
2023-01-19T06:41:04.649Z,44.80
2023-01-19T06:44:01.221Z,41.40
2023-01-19T06:47:19.970Z,37.10
2023-01-19T06:50:57.824Z,36.70
2023-01-19T06:54:28.364Z,39.10
2023-01-19T06:58:17.081Z,36.50
2023-01-19T07:01:56.591Z,36.50
2023-01-19T07:05:38.235Z,35.90
2023-01-19T07:08:22.392Z,40.90
2023-01-19T07:11:37.571Z,34.10
2023-01-19T07:17:06.494Z,37.00
2023-01-19T07:20:37.429Z,39.30
2023-01-19T07:23:30.120Z,33.00
2023-01-19T07:26:37.554Z,35.70
2023-01-19T07:29:55.556Z,44.50
2023-01-19T07:33:28.643Z,39.90
2023-01-19T07:37:04.412Z,38.80
2023-01-19T07:40:41.678Z,36.10
2023-01-19T07:44:29.091Z,40.20
2023-01-19T07:47:19.909Z,37.40
2023-01-19T07:50:15.725Z,37.60
2023-01-19T07:53:36.562Z,42.60
2023-01-19T07:56:34.444Z,40.60
2023-01-19T07:59:43.517Z,37.30
2023-01-19T08:03:22.103Z,35.60
2023-01-19T08:07:09.031Z,39.00
2023-01-19T08:10:57.779Z,40.40
2023-01-19T08:13:51.144Z,39.30
2023-01-19T08:16:39.686Z,36.20
2023-01-19T08:20:27.006Z,37.20
2023-01-19T08:23:54.087Z,41.90
2023-01-19T08:27:42.891Z,37.40
2023-01-19T08:31:20.380Z,36.80
2023-01-19T08:35:01.835Z,38.10
2023-01-19T08:38:09.151Z,38.70
2023-01-19T08:41:56.491Z,37.00
2023-01-19T08:45:45.301Z,33.50
2023-01-19T08:49:16.729Z,38.10
2023-01-19T08:52:45.704Z,42.40
2023-01-19T08:55:59.810Z,42.60
2023-01-19T08:59:42.325Z,46.00
2023-01-19T09:02:49.713Z,39.90
2023-01-19T09:06:20.567Z,45.90
2023-01-19T09:09:45.065Z,45.10
2023-01-19T09:13:33.326Z,46.10
2023-01-19T09:16:58.345Z,39.10
2023-01-19T09:20:12.662Z,40.30
2023-01-19T09:24:01.713Z,42.60
2023-01-19T09:27:50.503Z,43.60
2023-01-19T09:31:31.773Z,45.50
2023-01-19T09:34:53.855Z,45.20
2023-01-19T09:38:26.819Z,45.20
2023-01-19T09:41:39.526Z,41.60
2023-01-19T09:45:20.873Z,48.90
2023-01-19T09:49:24.401Z,43.50
2023-01-19T09:52:24.236Z,41.80
2023-01-19T09:56:22.206Z,42.30
2023-01-19T10:00:03.043Z,43.90
2023-01-19T10:03:35.569Z,34.30
2023-01-19T10:10:17.596Z,45.30
2023-01-19T10:14:14.957Z,41.50
2023-01-19T10:18:06.345Z,42.70
2023-01-19T10:21:55.169Z,39.80
2023-01-19T10:25:43.972Z,43.70
2023-01-19T10:29:23.798Z,34.90
2023-01-19T10:33:02.849Z,29.00
2023-01-19T10:36:19.395Z,33.70
2023-01-19T10:39:52.025Z,31.10
2023-01-19T10:43:22.806Z,33.50
2023-01-19T10:47:00.115Z,36.40
2023-01-19T10:50:31.607Z,37.40
2023-01-19T10:53:43.020Z,31.70
2023-01-19T10:57:24.704Z,36.30
2023-01-19T11:01:31.819Z,39.40
2023-01-19T11:04:39.340Z,39.20
2023-01-19T11:08:13.882Z,39.60
2023-01-19T11:11:44.574Z,36.20
2023-01-19T11:15:33.379Z,46.70
2023-01-19T11:18:54.420Z,41.90
2023-01-19T11:22:23.220Z,40.00
2023-01-19T11:26:12.057Z,39.00
2023-01-19T11:29:46.681Z,44.80
2023-01-19T11:32:42.915Z,41.70
2023-01-19T11:36:33.670Z,44.90
2023-01-19T11:40:14.429Z,47.20
2023-01-19T11:44:05.694Z,41.10
2023-01-19T11:47:53.186Z,44.20
2023-01-19T11:51:27.074Z,44.70
2023-01-19T11:55:20.535Z,40.80
2023-01-19T11:58:45.960Z,40.80
2023-01-19T12:02:30.657Z,43.10
2023-01-19T12:06:01.886Z,38.90
2023-01-19T12:09:34.056Z,49.90
2023-01-19T12:13:32.069Z,54.30
2023-01-19T12:17:00.213Z,44.00
2023-01-19T12:21:03.845Z,49.90
2023-01-19T12:24:58.798Z,48.20
2023-01-19T12:28:32.871Z,46.60
2023-01-19T12:32:21.570Z,45.50
2023-01-19T12:36:08.257Z,39.50
2023-01-19T12:39:45.603Z,41.80
2023-01-19T12:43:37.092Z,40.10
2023-01-19T12:47:31.608Z,42.50
2023-01-19T12:51:20.327Z,39.00
2023-01-19T12:54:56.447Z,40.30
2023-01-19T12:58:38.597Z,41.30
2023-01-19T13:02:10.924Z,50.20
2023-01-19T13:06:00.796Z,42.10
2023-01-19T13:09:34.490Z,42.10
2023-01-19T13:13:21.373Z,43.40
2023-01-19T13:17:02.750Z,45.20
2023-01-19T13:20:40.362Z,40.90
2023-01-19T13:24:30.220Z,46.80
2023-01-19T13:27:53.745Z,47.20
2023-01-19T13:31:42.543Z,46.50
2023-01-19T13:35:37.076Z,45.10
2023-01-19T13:39:25.532Z,44.30
2023-01-19T13:43:17.212Z,47.50
2023-01-19T13:47:06.743Z,45.70
2023-01-19T13:51:03.270Z,52.70
2023-01-19T13:54:37.633Z,44.00
2023-01-19T13:58:26.478Z,41.40
2023-01-19T14:02:06.912Z,48.20
2023-01-19T14:05:52.613Z,45.60
2023-01-19T14:09:47.115Z,44.80
2023-01-19T14:13:18.809Z,45.90
2023-01-19T14:17:07.607Z,43.60
2023-01-19T14:21:07.787Z,48.40
2023-01-19T14:24:43.263Z,46.50
2023-01-19T14:28:13.365Z,52.10
2023-01-19T14:31:33.858Z,48.70
2023-01-19T14:35:04.880Z,52.30
2023-01-19T14:38:40.662Z,44.20
2023-01-19T14:42:00.903Z,47.40
2023-01-19T14:45:31.838Z,43.70
2023-01-19T14:49:06.493Z,46.10
2023-01-19T14:52:19.114Z,42.50
2023-01-19T14:55:27.565Z,41.50
2023-01-19T14:58:18.631Z,51.40
2023-01-19T15:00:48.397Z,44.30
2023-01-19T15:03:46.372Z,43.40
2023-01-19T15:06:50.271Z,41.80
2023-01-19T15:09:51.073Z,37.00
2023-01-19T15:13:05.276Z,41.50
2023-01-19T15:16:16.738Z,35.30
2023-01-19T15:19:20.713Z,37.70
2023-01-19T15:23:12.459Z,38.00
2023-01-19T15:26:32.075Z,40.80
2023-01-19T15:30:02.961Z,35.40
2023-01-19T15:33:21.398Z,36.50
2023-01-19T15:37:08.907Z,33.20
2023-01-19T15:40:10.189Z,36.30
2023-01-19T15:43:08.422Z,39.30
2023-01-19T15:46:54.712Z,28.40
2023-01-19T15:49:35.642Z,38.40
2023-01-19T15:53:15.322Z,37.30
2023-01-19T15:56:24.859Z,38.80
2023-01-19T15:59:42.327Z,35.60
2023-01-19T16:02:23.912Z,38.10
2023-01-19T16:08:33.802Z,41.00
2023-01-19T16:12:05.535Z,37.10
2023-01-19T16:14:41.688Z,40.50
2023-01-19T16:18:04.226Z,37.80
2023-01-19T16:21:15.999Z,39.60
2023-01-19T16:24:46.303Z,39.00
2023-01-19T16:27:36.920Z,37.20
2023-01-19T16:30:24.682Z,40.50
2023-01-19T16:33:52.434Z,43.70
2023-01-19T16:37:27.938Z,36.00
2023-01-19T16:40:49.299Z,38.30
2023-01-19T16:43:39.864Z,35.20
2023-01-19T16:47:02.956Z,37.80
2023-01-19T16:49:44.186Z,40.30
2023-01-19T16:53:02.519Z,33.60
2023-01-19T16:55:50.092Z,34.30
2023-01-19T16:58:57.570Z,37.00
2023-01-19T17:01:37.870Z,39.90
2023-01-19T17:04:53.730Z,36.50
2023-01-19T17:08:25.205Z,39.40
2023-01-19T17:12:14.018Z,33.30
2023-01-19T17:16:01.227Z,35.90
2023-01-19T17:19:31.995Z,36.80
2023-01-19T17:22:51.595Z,33.90
2023-01-19T17:25:31.835Z,39.70
2023-01-19T17:28:39.748Z,32.40
2023-01-19T17:31:35.596Z,39.70
2023-01-19T17:34:22.000Z,36.40
2023-01-19T17:37:30.602Z,37.30
2023-01-19T17:41:01.217Z,35.30
2023-01-19T17:43:40.298Z,40.50
2023-01-19T17:46:52.110Z,41.80
2023-01-19T17:50:18.506Z,39.40
2023-01-19T17:53:51.216Z,39.50
2023-01-19T18:00:31.208Z,43.70
2023-01-19T18:03:32.044Z,44.20
2023-01-19T18:07:20.480Z,45.70
2023-01-19T18:10:49.787Z,46.30
2023-01-19T18:14:19.805Z,47.80
2023-01-19T18:17:58.419Z,47.30
2023-01-19T18:21:30.222Z,45.40
2023-01-19T18:24:43.916Z,46.50
2023-01-19T18:28:32.650Z,43.40
2023-01-19T18:32:14.236Z,48.40
2023-01-19T18:35:36.038Z,52.30
2023-01-19T18:39:24.767Z,47.20
2023-01-19T18:42:34.098Z,45.40
2023-01-19T18:45:47.978Z,57.60
2023-01-19T18:48:53.019Z,49.90
2023-01-19T18:52:41.773Z,49.40
2023-01-19T18:56:33.380Z,55.00
2023-01-19T19:00:22.211Z,50.70
2023-01-19T19:04:10.940Z,51.10
2023-01-19T19:07:52.284Z,51.00
2023-01-19T19:11:30.853Z,46.70
2023-01-19T19:14:44.259Z,62.30
2023-01-19T19:18:25.933Z,54.10
2023-01-19T19:21:57.712Z,58.10
2023-01-19T19:25:37.489Z,56.20
2023-01-19T19:29:26.228Z,62.30
2023-01-19T19:32:22.505Z,56.70
2023-01-19T19:36:03.961Z,60.30
2023-01-19T19:39:19.079Z,59.90
2023-01-19T19:42:58.810Z,59.40
2023-01-19T19:46:40.590Z,59.60
2023-01-19T19:50:09.109Z,60.30
2023-01-19T19:52:58.806Z,58.80
2023-01-19T19:56:21.682Z,55.80
2023-01-19T20:00:10.905Z,48.50
2023-01-19T20:03:59.893Z,53.00
2023-01-19T20:07:36.186Z,50.50
2023-01-19T20:11:23.810Z,55.30
2023-01-19T20:15:00.782Z,54.30
2023-01-19T20:18:12.234Z,55.30
2023-01-19T20:21:53.590Z,48.70
2023-01-19T20:24:44.509Z,54.40
2023-01-19T20:28:08.511Z,43.50
2023-01-19T20:31:21.210Z,54.50
2023-01-19T20:34:58.679Z,52.10
2023-01-19T20:38:09.289Z,51.70
2023-01-19T20:41:30.860Z,57.50
2023-01-19T20:44:59.553Z,55.80
2023-01-19T20:48:55.179Z,47.10
2023-01-19T20:52:19.186Z,46.80
2023-01-19T20:56:06.172Z,50.40
2023-01-19T20:59:36.811Z,63.50
2023-01-19T21:02:15.921Z,52.30
2023-01-19T21:05:25.606Z,51.70
2023-01-19T21:08:47.903Z,51.10
2023-01-19T21:11:32.011Z,53.70
2023-01-19T21:15:07.491Z,54.60
2023-01-19T21:18:46.131Z,61.70
2023-01-19T21:22:34.881Z,50.20
2023-01-19T21:26:22.161Z,49.70
2023-01-19T21:30:11.004Z,52.60
2023-01-19T21:33:59.205Z,58.00
2023-01-19T21:37:03.057Z,63.90
2023-01-19T21:40:35.570Z,58.10
2023-01-19T21:44:07.105Z,60.40
2023-01-19T21:47:28.585Z,58.10
2023-01-19T21:50:57.389Z,62.10
2023-01-19T21:54:44.759Z,54.90
2023-01-19T21:57:31.247Z,56.20
2023-01-19T22:01:20.368Z,64.00
2023-01-19T22:05:08.129Z,62.20
2023-01-19T22:08:56.888Z,68.00
2023-01-19T22:12:38.293Z,56.80
2023-01-19T22:16:08.697Z,65.90
2023-01-19T22:19:57.424Z,64.60
2023-01-19T22:23:26.087Z,61.70
2023-01-19T22:27:14.808Z,68.90
2023-01-19T22:31:03.819Z,67.50
2023-01-19T22:34:32.763Z,69.60
2023-01-19T22:38:21.603Z,59.80
2023-01-19T22:42:16.158Z,69.10
2023-01-19T22:45:58.947Z,63.30
2023-01-19T22:49:47.694Z,62.20
2023-01-19T22:53:25.656Z,59.00
2023-01-19T22:57:14.410Z,61.00
2023-01-19T23:01:03.237Z,64.90
2023-01-19T23:04:52.003Z,62.90
2023-01-19T23:08:40.759Z,56.50
2023-01-19T23:12:05.214Z,62.00
2023-01-19T23:15:33.005Z,62.50
2023-01-19T23:19:21.778Z,56.60
2023-01-19T23:23:10.513Z,60.90
2023-01-19T23:26:39.915Z,61.30
2023-01-19T23:30:28.373Z,59.70
2023-01-19T23:34:09.987Z,62.80
2023-01-19T23:37:58.846Z,60.70
2023-01-19T23:41:47.588Z,55.80
2023-01-19T23:45:28.991Z,53.20
2023-01-19T23:49:17.733Z,61.90
2023-01-19T23:53:06.458Z,59.60
2023-01-19T23:57:01.505Z,61.40
